Aviation Digital Data Service (ADDS)

Output produced by METARs form (1110 UTC 24 April 2017)
found at http://www.aviationweather.gov/adds/metars/
 
EKYT 241102Z AUTO 27023G34KT 9999NDV BKN030/// 07/01 Q0998
TAF EKYT 240820Z 2409/2506 24020KT 9999 BKN030 
     TEMPO 2409/2410 23020G30KT 5000 -RA BKN012 
     BECMG 2410/2412 28025G42KT 
     BECMG 2418/2420 27022G32KT 
     TEMPO 2500/2506 7000 -SHRA SCT015CB
       
EKAH 241050Z AUTO 25012G25KT 210V290 9999NDV FEW017/// SCT062/// 09/05 Q1001
TAF AMD EKAH 240728Z 2407/2506 21018KT 9999 BKN015 
     TEMPO 2407/2412 23015G28KT 4000 SHRA BKN008 SCT020CB 
     BECMG 2412/2414 29018KT 
     TEMPO 2415/2418 30022G35KT 
     BECMG 2419/2422 25008KT
       
EKBI 241050Z 26020KT 9999 FEW020CB BKN032 08/05 Q1003
TAF AMD EKBI 240728Z 2407/2506 21018KT 9999 BKN015 
     TEMPO 2407/2411 23015G28KT 4000 SHRA BKN008 SCT015CB 
     BECMG 2411/2413 29018KT 
     TEMPO 2415/2418 30020G32KT 
     BECMG 2419/2422 25008KT
       
EKRN 241050Z 21017KT 180V240 9999 -RA OVC021 06/03 Q1008
TAF EKRN 240804Z 2409/2418 23018KT 9999 BKN035 
     TEMPO 2409/2412 24018G28KT 4000 RADZ BR BKN008 
     TEMPO 2415/2417 24018G32KT 4000 SHRA BKN014 SCT020CB 
     BECMG 2417/2418 27018G30KT
       
EKEB 241050Z AUTO 29019KT 260V330 9999NDV BKN017/// 07/04 Q1004
TAF EKEB 240814Z 2409/2418 23020KT 9999 BKN020 
     TEMPO 2409/2411 24025G35KT 4000 SHRA BKN008 SCT020CB 
     BECMG 2411/2413 30018G30KT
       
EKKA 241101Z AUTO 29020G31KT 9999NDV BKN023/// BKN057/// 07/03 Q1002 NOSIG
TAF EKKA 240820Z 2409/2506 25015KT 9999 SCT012 BKN030 
     TEMPO 2409/2410 25015G28KT 5000 -RA BKN012 
     BECMG 2410/2412 30020G32KT 
     BECMG 2418/2421 24010KT
       
EKCH 241050Z 22019KT 9999 BKN019 08/05 Q1003 TEMPO RADZ BKN012
TAF EKCH 240511Z 2406/2506 22020KT 9999 BKN020 
     TEMPO 2406/2412 22018G30KT 4000 RADZ BKN008 
     TEMPO 2412/2414 24020G30KT 4000 SHRA BKN014 SCT020CB 
     BECMG 2414/2416 27015KT 
     TEMPO 2416/2419 28018G28KT
       
EKVD 241050Z AUTO 27020G30KT //// ///////// 09/05 Q1003
TAF EKVD 240829Z 2409/2416 23018KT 9999 BKN015 
     TEMPO 2409/2412 23020G32KT SHRA BKN008 SCT015CB 
     BECMG 2412/2414 30018G28KT
       
EKAH 241050Z AUTO 25012G25KT 210V290 9999NDV FEW017/// SCT062/// 09/05 Q1001
TAF AMD EKAH 240728Z 2407/2506 21018KT 9999 BKN015 
     TEMPO 2407/2412 23015G28KT 4000 SHRA BKN008 SCT020CB 
     BECMG 2412/2414 29018KT 
     TEMPO 2415/2418 30022G35KT 
     BECMG 2419/2422 25008KT
       
EKBI 241050Z 26020KT 9999 FEW020CB BKN032 08/05 Q1003
TAF AMD EKBI 240728Z 2407/2506 21018KT 9999 BKN015 
     TEMPO 2407/2411 23015G28KT 4000 SHRA BKN008 SCT015CB 
     BECMG 2411/2413 29018KT 
     TEMPO 2415/2418 30020G32KT 
     BECMG 2419/2422 25008KT
       
EKCH 241050Z 22019KT 9999 BKN019 08/05 Q1003 TEMPO RADZ BKN012
TAF EKCH 240511Z 2406/2506 22020KT 9999 BKN020 
     TEMPO 2406/2412 22018G30KT 4000 RADZ BKN008 
     TEMPO 2412/2414 24020G30KT 4000 SHRA BKN014 SCT020CB 
     BECMG 2414/2416 27015KT 
     TEMPO 2416/2419 28018G28KT
       
EKEB 241050Z AUTO 29019KT 260V330 9999NDV BKN017/// 07/04 Q1004
TAF EKEB 240814Z 2409/2418 23020KT 9999 BKN020 
     TEMPO 2409/2411 24025G35KT 4000 SHRA BKN008 SCT020CB 
     BECMG 2411/2413 30018G30KT
       
TAF EKGF 240851Z 2409/2418 25025KT 9999 BKN018 
     BECMG 2409/2411 32018KT
       
EKKA 241101Z AUTO 29020G31KT 9999NDV BKN023/// BKN057/// 07/03 Q1002 NOSIG
TAF EKKA 240820Z 2409/2506 25015KT 9999 SCT012 BKN030 
     TEMPO 2409/2410 25015G28KT 5000 -RA BKN012 
     BECMG 2410/2412 30020G32KT 
     BECMG 2418/2421 24010KT
       
EKOD 241050Z 24021G35KT 9999 -SHRA FEW013 SCT018 BKN033 08/07 Q1003
TAF EKOD 240829Z 2409/2418 22015KT 9999 BKN015 
     TEMPO 2409/2414 24018G30KT 4000 SHRA BKN006 SCT015CB 
     BECMG 2414/2416 28018G30KT
       
EKRK 241050Z AUTO 22020KT 9999NDV -RA FEW015/// SCT022/// BKN026/// BKN030/// 08/05 Q1003
TAF EKRK 240804Z 2409/2418 22015KT 9999 BKN020 
     TEMPO 2409/2411 22018G28KT BKN012 
     TEMPO 2411/2413 24020G32KT 4000 SHRA BKN014 SCT020CB 
     BECMG 2413/2415 27018G28KT
       
EKRN 241050Z 21017KT 180V240 9999 -RA OVC021 06/03 Q1008
TAF EKRN 240804Z 2409/2418 23018KT 9999 BKN035 
     TEMPO 2409/2412 24018G28KT 4000 RADZ BR BKN008 
     TEMPO 2415/2417 24018G32KT 4000 SHRA BKN014 SCT020CB 
     BECMG 2417/2418 27018G30KT
       
EKSB 241050Z 25013G23KT 210V280 6000 -RA BKN015 09/06 Q1005
TAF EKSB 240829Z 2409/2418 22015G28KT 9999 BKN015 
     TEMPO 2410/2413 4000 SHRA BKN008 BKN015CB 
     BECMG 2413/2415 30018KT
       
EKSN 241050Z 26024G35KT 9999 SCT026 08/02 Q0997
TAF EKSN 240829Z 2409/2415 26020G30KT 9999 BKN020 
     TEMPO 2409/2415 27025G42KT
       
EKSP 241050Z 26018KT 9999 SCT010 BKN032 07/05 Q1004 TEMPO 27020G32KT 6000 -SHRA BKN012
TAF EKSP 240818Z 2409/2506 24022G32KT 9999 -RA BKN025 
     TEMPO 2409/2412 25018KT 4000 RADZ BKN008 
     BECMG 2412/2414 28020G34KT NSW 
     BECMG 2418/2420 27010KT
       
EKVD 241050Z AUTO 27020G30KT //// ///////// 09/05 Q1003
TAF EKVD 240829Z 2409/2416 23018KT 9999 BKN015 
     TEMPO 2409/2412 23020G32KT SHRA BKN008 SCT015CB 
     BECMG 2412/2414 30018G28KT
       
EKVG 241050Z AUTO 34036G46KT 2000NDV R12/0800VP1500U R30/1200VP1500U -PL BKN009/// 01/01 Q1013 RERASN RMK OVC010/// WIND 850FT 36041G68KT 320V030
TAF AMD EKVG 240953Z 2409/2418 32030G45KT 9999 BKN022 
     TEMPO 2409/2411 34042G60KT 2500 -SHSN BKN008 BKN020CB 
     BECMG 2411/2413 36022G38KT 
     TEMPO 2417/2418 1200 SHSN BLSN BKN008 BKN020CB
       
EKVJ 241050Z 27014G24KT 230V340 9999 SCT012 BKN025 08/06 Q1004
TAF EKVJ 240829Z 2409/2415 24020KT 9999 BKN015 
     TEMPO 2409/2410 24020G32KT 4000 SHRA BKN008 SCT015CB 
     BECMG 2410/2412 30022G35KT
       
EKYT 241102Z AUTO 27023G34KT 9999NDV BKN030/// 07/01 Q0998
TAF EKYT 240820Z 2409/2506 24020KT 9999 BKN030 
     TEMPO 2409/2410 23020G30KT 5000 -RA BKN012 
     BECMG 2410/2412 28025G42KT 
     BECMG 2418/2420 27022G32KT 
     TEMPO 2500/2506 7000 -SHRA SCT015CB
       
EKOD 241050Z 24021G35KT 9999 -SHRA FEW013 SCT018 BKN033 08/07 Q1003
TAF EKOD 240829Z 2409/2418 22015KT 9999 BKN015 
     TEMPO 2409/2414 24018G30KT 4000 SHRA BKN006 SCT015CB 
     BECMG 2414/2416 28018G30KT
       
EKRK 241050Z AUTO 22020KT 9999NDV -RA FEW015/// SCT022/// BKN026/// BKN030/// 08/05 Q1003
TAF EKRK 240804Z 2409/2418 22015KT 9999 BKN020 
     TEMPO 2409/2411 22018G28KT BKN012 
     TEMPO 2411/2413 24020G32KT 4000 SHRA BKN014 SCT020CB 
     BECMG 2413/2415 27018G28KT
       
EKSN 241050Z 26024G35KT 9999 SCT026 08/02 Q0997
TAF EKSN 240829Z 2409/2415 26020G30KT 9999 BKN020 
     TEMPO 2409/2415 27025G42KT
       
EKSP 241050Z 26018KT 9999 SCT010 BKN032 07/05 Q1004 TEMPO 27020G32KT 6000 -SHRA BKN012
TAF EKSP 240818Z 2409/2506 24022G32KT 9999 -RA BKN025 
     TEMPO 2409/2412 25018KT 4000 RADZ BKN008 
     BECMG 2412/2414 28020G34KT NSW 
     BECMG 2418/2420 27010KT
       
EKSB 241050Z 25013G23KT 210V280 6000 -RA BKN015 09/06 Q1005
TAF EKSB 240829Z 2409/2418 22015G28KT 9999 BKN015 
     TEMPO 2410/2413 4000 SHRA BKN008 BKN015CB 
     BECMG 2413/2415 30018KT
       
EKVJ 241050Z 27014G24KT 230V340 9999 SCT012 BKN025 08/06 Q1004
TAF EKVJ 240829Z 2409/2415 24020KT 9999 BKN015 
     TEMPO 2409/2410 24020G32KT 4000 SHRA BKN008 SCT015CB 
     BECMG 2410/2412 30022G35KT